Weather History for Austin, MN

Change the Weather History Date:

Friday, November 1, 2013

  Actual Average Record
Temperature  
Mean Temperature 44 °F -  
Max Temperature 50 °F 48 °F 69 °F (2001)
Min Temperature 37 °F 32 °F 17 °F (1996)
Degree Days  
Heating Degree Days 22    
Moisture  
Dew Point 37 °F    
Average Humidity 83    
Maximum Humidity 100    
Minimum Humidity 58    
Precipitation  
Precipitation 0.00 in - - ()
Sea Level Pressure  
Sea Level Pressure 29.62 in    
Wind  
Wind Speed 11 mph (WNW)    
Max Wind Speed 16 mph    
Max Gust Speed 25 mph    
Visibility 9 miles    
Events      
Averages and records for this station are not official NWS values.
T = Trace of Precipitation, MM = Missing Value Source: NWS Daily Summary

Daily Weather History Graph

Daily Weather History Graph

Search for Another Location

Airport:

Trip Planner

Search our weather history database for the weather conditions in past years. The results will help you decide how hot, cold, wet, or windy it might be!

Date:

Astronomy

Nov. 01, 2013 Rise Set
Actual Time 7:47 AM CDT 6:02 PM CDT
Civil Twilight 7:17 AM CDT 6:31 PM CDT
Nautical Twilight 6:44 AM CDT 7:05 PM CDT
Astronomical Twilight 6:10 AM CDT 7:39 PM CDT
Moon 5:37 AM CDT (11/1) 4:57 PM CDT (11/1)
Length of Visible Light 11h 14m
Length of Day
10h 14m
Waning Crescent, 4% of the Moon is Illuminated
Nov 1
Waning Crescent
Nov 3
New
Nov 9
First Quarter
Nov 17
Full
Nov 25
Last Quarter

Hourly Weather History & Observations

Time (CDT) Temp. Windchill Dew Point Humidity Pressure Visibility Wind Dir Wind Speed Gust Speed Precip Events Conditions
12:14 AM 37.4 °F 30.8 °F 35.6 °F 93% 29.42 in 10.0 mi West 9.2 mph - N/A   Overcast
12:34 AM 37.4 °F 30.3 °F 37.4 °F 100% 29.43 in 10.0 mi WNW 10.4 mph 16.1 mph N/A   Overcast
12:54 AM 37.4 °F 28.9 °F 37.4 °F 100% 29.43 in 10.0 mi WNW 13.8 mph 19.6 mph N/A   Overcast
1:14 AM 37.4 °F 29.8 °F 37.4 °F 100% 29.43 in 10.0 mi WNW 11.5 mph - N/A   Overcast
1:34 AM 39.2 °F 32.5 °F 37.4 °F 93% 29.44 in 10.0 mi WNW 10.4 mph 17.3 mph N/A   Overcast
1:54 AM 39.2 °F 32.5 °F 37.4 °F 93% 29.44 in 7.0 mi WNW 10.4 mph - N/A   Overcast
2:14 AM 39.2 °F 32.0 °F 37.4 °F 93% 29.45 in 7.0 mi WNW 11.5 mph 16.1 mph N/A   Overcast
2:34 AM 39.2 °F 32.5 °F 37.4 °F 93% 29.45 in 7.0 mi WNW 10.4 mph - N/A   Overcast
2:54 AM 39.2 °F 32.0 °F 37.4 °F 93% 29.46 in 7.0 mi WNW 11.5 mph - N/A   Overcast
3:14 AM 39.2 °F 33.0 °F 37.4 °F 93% 29.46 in 7.0 mi WNW 9.2 mph - N/A   Overcast
3:34 AM 39.2 °F 32.0 °F 37.4 °F 93% 29.47 in 7.0 mi WNW 11.5 mph 18.4 mph N/A   Overcast
3:54 AM 39.2 °F 31.6 °F 37.4 °F 93% 29.47 in 7.0 mi WNW 12.7 mph 16.1 mph N/A   Overcast
4:14 AM 39.2 °F 31.2 °F 37.4 °F 93% 29.48 in 7.0 mi WNW 13.8 mph 19.6 mph N/A   Overcast
4:34 AM 39.2 °F 32.5 °F 37.4 °F 93% 29.48 in 5.0 mi WNW 10.4 mph 18.4 mph N/A   Overcast
4:54 AM 39.2 °F 32.5 °F 37.4 °F 93% 29.49 in 5.0 mi WNW 10.4 mph - N/A   Overcast
5:14 AM 39.2 °F 30.8 °F 37.4 °F 93% 29.50 in 5.0 mi WNW 15.0 mph 19.6 mph N/A   Overcast
5:34 AM 39.2 °F 33.0 °F 39.2 °F 100% 29.51 in 5.0 mi WNW 9.2 mph - N/A   Overcast
5:54 AM 39.2 °F 32.5 °F 39.2 °F 100% 29.52 in 5.0 mi NW 10.4 mph 18.4 mph N/A   Overcast
6:14 AM 39.2 °F 33.0 °F 39.2 °F 100% 29.53 in 5.0 mi NW 9.2 mph 17.3 mph N/A   Overcast
6:34 AM 39.2 °F 32.5 °F 37.4 °F 93% 29.53 in 7.0 mi WNW 10.4 mph - N/A   Overcast
6:54 AM 39.2 °F 32.5 °F 37.4 °F 93% 29.54 in 7.0 mi WNW 10.4 mph - N/A   Overcast
7:14 AM 39.2 °F 31.2 °F 37.4 °F 93% 29.54 in 7.0 mi WNW 13.8 mph 18.4 mph N/A   Overcast
7:34 AM 39.2 °F 31.6 °F 37.4 °F 93% 29.55 in 7.0 mi WNW 12.7 mph 16.1 mph N/A   Mostly Cloudy
7:54 AM 39.2 °F 33.6 °F 37.4 °F 93% 29.55 in 7.0 mi WNW 8.1 mph - N/A   Scattered Clouds
8:14 AM 39.2 °F 34.2 °F 37.4 °F 93% 29.56 in 5.0 mi West 6.9 mph - N/A   Scattered Clouds
8:34 AM 39.2 °F 34.2 °F 37.4 °F 93% 29.57 in 7.0 mi West 6.9 mph - N/A   Overcast
8:54 AM 39.2 °F 33.0 °F 37.4 °F 93% 29.58 in 7.0 mi West 9.2 mph - N/A   Overcast
9:14 AM 39.2 °F 33.0 °F 37.4 °F 93% 29.58 in 7.0 mi West 9.2 mph - N/A   Mostly Cloudy
9:34 AM 39.2 °F 32.0 °F 37.4 °F 93% 29.59 in 5.0 mi West 11.5 mph - N/A   Mostly Cloudy
9:54 AM 39.2 °F 30.8 °F 37.4 °F 93% 29.59 in 7.0 mi NW 15.0 mph - N/A   Overcast
10:14 AM 41.0 °F 34.7 °F 37.4 °F 87% 29.60 in 7.0 mi WNW 10.4 mph 18.4 mph N/A   Mostly Cloudy
10:34 AM 41.0 °F 34.7 °F 37.4 °F 87% 29.60 in 10.0 mi WNW 10.4 mph - N/A   Scattered Clouds
10:54 AM 42.8 °F 35.8 °F 37.4 °F 81% 29.60 in 10.0 mi WNW 13.8 mph - N/A   Clear
11:14 AM 42.8 °F 35.4 °F 35.6 °F 76% 29.61 in 10.0 mi WNW 15.0 mph 21.9 mph N/A   Clear
11:34 AM 42.8 °F 35.4 °F 37.4 °F 81% 29.62 in 10.0 mi WNW 15.0 mph - N/A   Clear
11:54 AM 44.6 °F 37.8 °F 35.6 °F 71% 29.62 in 10.0 mi NW 15.0 mph 25.3 mph N/A   Clear
12:14 PM 44.6 °F 38.1 °F 35.6 °F 71% 29.63 in 10.0 mi WNW 13.8 mph 20.7 mph N/A   Clear
12:34 PM 44.6 °F 38.1 °F 35.6 °F 71% 29.63 in 10.0 mi NW 13.8 mph 20.7 mph N/A   Clear
12:54 PM 46.4 °F 40.4 °F 37.4 °F 71% 29.63 in 10.0 mi WNW 13.8 mph 21.9 mph N/A   Clear
1:14 PM 46.4 °F 41.1 °F 37.4 °F 71% 29.63 in 10.0 mi WNW 11.5 mph 18.4 mph N/A   Clear
1:34 PM 46.4 °F 41.1 °F 37.4 °F 71% 29.63 in 10.0 mi West 11.5 mph 21.9 mph N/A   Clear
1:54 PM 46.4 °F 40.7 °F 37.4 °F 71% 29.64 in 10.0 mi NW 12.7 mph - N/A   Scattered Clouds
2:14 PM 48.2 °F - 37.4 °F 66% 29.64 in 10.0 mi West 11.5 mph - N/A   Scattered Clouds
2:34 PM 48.2 °F - 37.4 °F 66% 29.64 in 10.0 mi WNW 16.1 mph 20.7 mph N/A   Clear
2:54 PM 50.0 °F - 37.4 °F 62% 29.64 in 10.0 mi NW 10.4 mph 18.4 mph N/A   Scattered Clouds
3:14 PM 50.0 °F - 35.6 °F 58% 29.65 in 10.0 mi NW 11.5 mph 20.7 mph N/A   Clear
3:34 PM 50.0 °F - 35.6 °F 58% 29.66 in 10.0 mi WNW 15.0 mph - N/A   Clear
3:54 PM 50.0 °F - 35.6 °F 58% 29.66 in 10.0 mi WNW 15.0 mph 18.4 mph N/A   Clear
4:14 PM 50.0 °F - 35.6 °F 58% 29.67 in 10.0 mi WNW 13.8 mph 18.4 mph N/A   Scattered Clouds
4:34 PM 48.2 °F - 35.6 °F 62% 29.67 in 10.0 mi West 10.4 mph 16.1 mph N/A   Scattered Clouds
4:54 PM 48.2 °F - 35.6 °F 62% 29.68 in 10.0 mi WNW 10.4 mph 17.3 mph N/A   Mostly Cloudy
5:14 PM 48.2 °F - 37.4 °F 66% 29.68 in 10.0 mi NW 9.2 mph - N/A   Overcast
5:34 PM 48.2 °F - 37.4 °F 66% 29.69 in 10.0 mi WNW 15.0 mph 18.4 mph N/A   Overcast
5:54 PM 48.2 °F - 37.4 °F 66% 29.70 in 10.0 mi WNW 11.5 mph - N/A   Overcast
6:14 PM 46.4 °F 42.9 °F 37.4 °F 71% 29.71 in 10.0 mi NW 6.9 mph - N/A   Mostly Cloudy
6:34 PM 44.6 °F 42.2 °F 37.4 °F 76% 29.71 in 10.0 mi NW 4.6 mph - N/A   Mostly Cloudy
6:54 PM 44.6 °F 40.7 °F 37.4 °F 76% 29.72 in 10.0 mi NW 6.9 mph - N/A   Mostly Cloudy
7:14 PM 44.6 °F 41.4 °F 37.4 °F 76% 29.73 in 10.0 mi NW 5.8 mph - N/A   Mostly Cloudy
7:34 PM 44.6 °F 40.2 °F 37.4 °F 76% 29.73 in 10.0 mi NW 8.1 mph - N/A   Scattered Clouds
7:54 PM 44.6 °F 39.7 °F 37.4 °F 76% 29.74 in 10.0 mi NW 9.2 mph - N/A   Clear
8:14 PM 42.8 °F 37.5 °F 37.4 °F 81% 29.75 in 10.0 mi WNW 9.2 mph - N/A   Clear
8:34 PM 42.8 °F 37.5 °F 39.2 °F 87% 29.75 in 10.0 mi WNW 9.2 mph - N/A   Clear
8:54 PM 42.8 °F 37.0 °F 39.2 °F 87% 29.76 in 10.0 mi NW 10.4 mph - N/A   Scattered Clouds
9:14 PM 42.8 °F 37.5 °F 39.2 °F 87% 29.77 in 10.0 mi WNW 9.2 mph - N/A   Mostly Cloudy
9:34 PM 42.8 °F 37.0 °F 37.4 °F 81% 29.78 in 10.0 mi NW 10.4 mph - N/A   Scattered Clouds
9:54 PM 42.8 °F 38.0 °F 37.4 °F 81% 29.79 in 10.0 mi NW 8.1 mph - N/A   Mostly Cloudy
10:14 PM 42.8 °F 37.0 °F 37.4 °F 81% 29.79 in 10.0 mi NW 10.4 mph - N/A   Overcast
10:34 PM 42.8 °F 38.0 °F 37.4 °F 81% 29.80 in 10.0 mi NNW 8.1 mph - N/A   Overcast
10:54 PM 41.0 °F 33.9 °F 35.6 °F 81% 29.82 in 10.0 mi NNE 12.7 mph 20.7 mph N/A   Overcast
11:14 PM 39.2 °F 33.0 °F 33.8 °F 81% 29.83 in 10.0 mi North 9.2 mph 18.4 mph N/A   Overcast
11:34 PM 37.4 °F 32.1 °F 33.8 °F 87% 29.84 in 10.0 mi North 6.9 mph - N/A   Mostly Cloudy
11:53 PM 37.4 °F 34.9 °F 33.8 °F 87% 29.85 in 10.0 mi North 3.5 mph - N/A   Scattered Clouds